sensor_id;sensor_type;location;lat;lon;timestamp;pressure;altitude;pressure_sealevel;temperature;humidity
29569;BME280;16501;51.462;14.346;2023-09-07T00:01:07;100960.19;;;18.99;89.84
29569;BME280;16501;51.462;14.346;2023-09-07T00:03:32;100960.69;;;19.03;89.75
29569;BME280;16501;51.462;14.346;2023-09-07T00:05:57;100967.41;;;18.95;90.70
29569;BME280;16501;51.462;14.346;2023-09-07T00:08:22;100961.72;;;18.89;90.87
29569;BME280;16501;51.462;14.346;2023-09-07T00:10:49;100933.00;;;18.64;90.35
29569;BME280;16501;51.462;14.346;2023-09-07T00:13:15;100956.03;;;18.78;90.73
29569;BME280;16501;51.462;14.346;2023-09-07T00:15:40;100962.25;;;18.82;90.83
29569;BME280;16501;51.462;14.346;2023-09-07T00:18:05;100960.91;;;18.77;90.47
29569;BME280;16501;51.462;14.346;2023-09-07T00:20:31;100942.03;;;18.57;90.56
29569;BME280;16501;51.462;14.346;2023-09-07T00:22:58;100957.56;;;18.73;91.08
29569;BME280;16501;51.462;14.346;2023-09-07T00:25:24;100969.41;;;18.72;90.76
29569;BME280;16501;51.462;14.346;2023-09-07T00:27:50;100964.50;;;18.72;90.91
29569;BME280;16501;51.462;14.346;2023-09-07T00:30:15;100954.69;;;18.62;91.14
29569;BME280;16501;51.462;14.346;2023-09-07T00:32:40;100949.00;;;18.56;91.19
29569;BME280;16501;51.462;14.346;2023-09-07T00:35:06;100953.91;;;18.56;91.42
29569;BME280;16501;51.462;14.346;2023-09-07T00:37:32;100943.31;;;18.51;91.37
29569;BME280;16501;51.462;14.346;2023-09-07T00:39:57;100966.00;;;18.51;91.42
29569;BME280;16501;51.462;14.346;2023-09-07T00:42:22;100963.66;;;18.38;92.95
29569;BME280;16501;51.462;14.346;2023-09-07T00:44:48;100954.88;;;18.36;94.01
29569;BME280;16501;51.462;14.346;2023-09-07T00:47:15;100948.66;;;18.32;93.58
29569;BME280;16501;51.462;14.346;2023-09-07T00:49:40;100954.88;;;18.36;93.30
29569;BME280;16501;51.462;14.346;2023-09-07T00:52:07;100951.25;;;18.30;93.07
29569;BME280;16501;51.462;14.346;2023-09-07T00:54:33;100946.28;;;18.13;93.43
29569;BME280;16501;51.462;14.346;2023-09-07T00:56:59;100956.91;;;18.18;93.53
29569;BME280;16501;51.462;14.346;2023-09-07T00:59:24;100959.09;;;17.97;95.20
29569;BME280;16501;51.462;14.346;2023-09-07T01:01:50;100953.19;;;18.01;94.86
29569;BME280;16501;51.462;14.346;2023-09-07T01:04:15;100933.00;;;17.87;94.19
29569;BME280;16501;51.462;14.346;2023-09-07T01:06:47;100938.09;;;17.83;94.40
29569;BME280;16501;51.462;14.346;2023-09-07T01:09:24;100938.69;;;17.87;94.38
29569;BME280;16501;51.462;14.346;2023-09-07T01:11:51;100953.41;;;17.92;94.46
29569;BME280;16501;51.462;14.346;2023-09-07T01:14:18;100928.28;;;17.73;94.29
29569;BME280;16501;51.462;14.346;2023-09-07T01:16:43;100946.34;;;17.81;94.62
29569;BME280;16501;51.462;14.346;2023-09-07T01:19:09;100938.88;;;17.78;94.62
29569;BME280;16501;51.462;14.346;2023-09-07T01:21:35;100946.44;;;17.87;94.25
29569;BME280;16501;51.462;14.346;2023-09-07T01:24:03;100954.16;;;17.86;94.26
29569;BME280;16501;51.462;14.346;2023-09-07T01:26:29;100946.91;;;17.85;94.33
29569;BME280;16501;51.462;14.346;2023-09-07T01:28:55;100941.16;;;17.74;94.10
29569;BME280;16501;51.462;14.346;2023-09-07T01:31:20;100938.81;;;17.72;94.56
29569;BME280;16501;51.462;14.346;2023-09-07T01:33:45;100943.72;;;17.72;94.63
29569;BME280;16501;51.462;14.346;2023-09-07T01:36:10;100942.66;;;17.64;94.58
29569;BME280;16501;51.462;14.346;2023-09-07T01:38:36;100946.03;;;17.68;94.34
29569;BME280;16501;51.462;14.346;2023-09-07T01:41:01;100916.72;;;17.39;95.57
29569;BME280;16501;51.462;14.346;2023-09-07T01:43:26;100936.69;;;17.56;95.77
29569;BME280;16501;51.462;14.346;2023-09-07T01:45:52;100943.13;;;17.57;95.45
29569;BME280;16501;51.462;14.346;2023-09-07T01:48:17;100933.84;;;17.56;95.28
29569;BME280;16501;51.462;14.346;2023-09-07T01:50:42;100936.91;;;17.52;95.43
29569;BME280;16501;51.462;14.346;2023-09-07T01:53:08;100936.91;;;17.52;95.48
29569;BME280;16501;51.462;14.346;2023-09-07T01:55:33;100930.63;;;17.37;95.43
29569;BME280;16501;51.462;14.346;2023-09-07T01:57:58;100941.50;;;17.44;95.20
29569;BME280;16501;51.462;14.346;2023-09-07T02:00:24;100936.28;;;17.37;94.85
29569;BME280;16501;51.462;14.346;2023-09-07T02:02:49;100930.88;;;17.33;95.07
29569;BME280;16501;51.462;14.346;2023-09-07T02:05:14;100942.47;;;17.36;95.00
29569;BME280;16501;51.462;14.346;2023-09-07T02:07:39;100948.38;;;17.32;94.94
29569;BME280;16501;51.462;14.346;2023-09-07T02:10:05;100934.09;;;17.21;95.41
29569;BME280;16501;51.462;14.346;2023-09-07T02:12:31;100949.09;;;17.27;95.77
29569;BME280;16501;51.462;14.346;2023-09-07T02:14:56;100950.09;;;17.24;95.25
29569;BME280;16501;51.462;14.346;2023-09-07T02:17:21;100932.03;;;17.15;95.83
29569;BME280;16501;51.462;14.346;2023-09-07T02:19:47;100939.97;;;17.11;95.84
29569;BME280;16501;51.462;14.346;2023-09-07T02:22:12;100942.28;;;17.13;96.29
29569;BME280;16501;51.462;14.346;2023-09-07T02:24:37;100952.84;;;17.12;95.91
29569;BME280;16501;51.462;14.346;2023-09-07T02:27:03;100946.34;;;17.06;96.06
29569;BME280;16501;51.462;14.346;2023-09-07T02:29:28;100938.53;;;16.95;95.89
29569;BME280;16501;51.462;14.346;2023-09-07T02:31:53;100935.97;;;16.98;95.31
29569;BME280;16501;51.462;14.346;2023-09-07T02:34:19;100944.25;;;17.01;96.48
29569;BME280;16501;51.462;14.346;2023-09-07T02:36:44;100940.59;;;16.95;96.51
29569;BME280;16501;51.462;14.346;2023-09-07T02:39:10;100940.84;;;16.91;96.49
29569;BME280;16501;51.462;14.346;2023-09-07T02:41:36;100938.91;;;16.83;96.00
29569;BME280;16501;51.462;14.346;2023-09-07T02:44:01;100930.34;;;16.77;96.04
29569;BME280;16501;51.462;14.346;2023-09-07T02:46:28;100933.81;;;16.61;100.00
29569;BME280;16501;51.462;14.346;2023-09-07T02:48:53;100935.38;;;16.62;100.00
29569;BME280;16501;51.462;14.346;2023-09-07T02:51:22;100925.03;;;16.32;100.00
29569;BME280;16501;51.462;14.346;2023-09-07T02:53:47;100939.91;;;16.53;100.00
29569;BME280;16501;51.462;14.346;2023-09-07T02:56:12;100929.47;;;16.39;100.00
29569;BME280;16501;51.462;14.346;2023-09-07T02:58:38;100936.44;;;16.44;100.00
29569;BME280;16501;51.462;14.346;2023-09-07T03:01:06;100935.97;;;16.45;100.00
29569;BME280;16501;51.462;14.346;2023-09-07T03:03:33;100918.78;;;16.28;100.00
29569;BME280;16501;51.462;14.346;2023-09-07T03:06:07;100934.91;;;16.43;100.00
29569;BME280;16501;51.462;14.346;2023-09-07T03:08:33;100913.72;;;16.32;100.00
29569;BME280;16501;51.462;14.346;2023-09-07T03:10:58;100934.41;;;16.44;100.00
29569;BME280;16501;51.462;14.346;2023-09-07T03:13:27;100946.50;;;16.45;100.00
29569;BME280;16501;51.462;14.346;2023-09-07T03:15:53;100934.22;;;16.27;100.00
29569;BME280;16501;51.462;14.346;2023-09-07T03:18:19;100930.63;;;16.06;100.00
29569;BME280;16501;51.462;14.346;2023-09-07T03:20:44;100930.25;;;16.19;100.00
29569;BME280;16501;51.462;14.346;2023-09-07T03:23:09;100932.31;;;16.18;100.00
29569;BME280;16501;51.462;14.346;2023-09-07T03:25:34;100922.91;;;16.27;100.00
29569;BME280;16501;51.462;14.346;2023-09-07T03:27:59;100931.72;;;16.35;100.00
29569;BME280;16501;51.462;14.346;2023-09-07T03:30:25;100943.09;;;16.40;100.00
29569;BME280;16501;51.462;14.346;2023-09-07T03:32:50;100917.69;;;16.20;100.00
29569;BME280;16501;51.462;14.346;2023-09-07T03:35:15;100937.38;;;16.35;100.00
29569;BME280;16501;51.462;14.346;2023-09-07T03:37:42;100955.72;;;16.39;100.00
29569;BME280;16501;51.462;14.346;2023-09-07T03:40:08;100944.56;;;16.30;100.00
29569;BME280;16501;51.462;14.346;2023-09-07T03:42:34;100932.66;;;16.26;100.00
29569;BME280;16501;51.462;14.346;2023-09-07T03:44:59;100939.31;;;16.23;100.00
29569;BME280;16501;51.462;14.346;2023-09-07T03:47:25;100948.66;;;16.29;100.00
29569;BME280;16501;51.462;14.346;2023-09-07T03:49:54;100954.31;;;16.29;100.00
29569;BME280;16501;51.462;14.346;2023-09-07T03:52:19;100943.63;;;16.18;100.00
29569;BME280;16501;51.462;14.346;2023-09-07T03:54:46;100952.34;;;16.15;100.00
29569;BME280;16501;51.462;14.346;2023-09-07T03:57:11;100943.00;;;16.09;100.00
29569;BME280;16501;51.462;14.346;2023-09-07T03:59:37;100951.00;;;16.10;100.00
29569;BME280;16501;51.462;14.346;2023-09-07T04:02:03;100941.31;;;15.96;100.00
29569;BME280;16501;51.462;14.346;2023-09-07T04:04:28;100917.13;;;15.75;100.00
29569;BME280;16501;51.462;14.346;2023-09-07T04:06:53;100919.94;;;15.75;100.00
29569;BME280;16501;51.462;14.346;2023-09-07T04:09:18;100932.31;;;15.77;100.00
29569;BME280;16501;51.462;14.346;2023-09-07T04:11:44;100924.31;;;15.76;100.00
29569;BME280;16501;51.462;14.346;2023-09-07T04:14:09;100933.09;;;15.78;100.00
29569;BME280;16501;51.462;14.346;2023-09-07T04:16:34;100940.63;;;15.66;100.00
29569;BME280;16501;51.462;14.346;2023-09-07T04:19:01;100933.94;;;15.49;100.00
29569;BME280;16501;51.462;14.346;2023-09-07T04:21:26;100921.47;;;15.40;100.00
29569;BME280;16501;51.462;14.346;2023-09-07T04:23:52;100929.56;;;15.48;100.00
29569;BME280;16501;51.462;14.346;2023-09-07T04:26:17;100933.28;;;15.39;100.00
29569;BME280;16501;51.462;14.346;2023-09-07T04:28:42;100911.28;;;15.28;100.00
29569;BME280;16501;51.462;14.346;2023-09-07T04:31:07;100941.13;;;15.50;100.00
29569;BME280;16501;51.462;14.346;2023-09-07T04:33:33;100948.88;;;15.70;100.00
29569;BME280;16501;51.462;14.346;2023-09-07T04:36:12;100960.31;;;15.75;100.00
29569;BME280;16501;51.462;14.346;2023-09-07T04:38:38;100957.25;;;15.79;100.00
29569;BME280;16501;51.462;14.346;2023-09-07T04:41:11;100956.50;;;15.78;100.00
29569;BME280;16501;51.462;14.346;2023-09-07T04:43:37;100973.25;;;15.82;100.00
29569;BME280;16501;51.462;14.346;2023-09-07T04:46:05;100956.56;;;15.69;100.00
29569;BME280;16501;51.462;14.346;2023-09-07T04:48:30;100965.81;;;15.84;100.00
29569;BME280;16501;51.462;14.346;2023-09-07T04:51:00;100977.31;;;15.96;100.00
29569;BME280;16501;51.462;14.346;2023-09-07T04:53:28;100967.19;;;15.89;100.00
29569;BME280;16501;51.462;14.346;2023-09-07T04:55:53;100982.75;;;15.99;100.00
29569;BME280;16501;51.462;14.346;2023-09-07T04:58:19;100963.72;;;16.00;100.00
29569;BME280;16501;51.462;14.346;2023-09-07T05:00:44;100981.34;;;16.10;100.00
29569;BME280;16501;51.462;14.346;2023-09-07T05:03:09;100987.13;;;16.21;100.00
29569;BME280;16501;51.462;14.346;2023-09-07T05:05:34;100958.91;;;16.06;100.00
29569;BME280;16501;51.462;14.346;2023-09-07T05:07:59;100970.38;;;16.17;100.00
29569;BME280;16501;51.462;14.346;2023-09-07T05:10:25;100981.19;;;16.19;100.00
29569;BME280;16501;51.462;14.346;2023-09-07T05:12:50;100987.72;;;16.25;100.00
29569;BME280;16501;51.462;14.346;2023-09-07T05:15:15;100979.44;;;16.21;100.00
29569;BME280;16501;51.462;14.346;2023-09-07T05:17:42;100989.41;;;16.37;100.00
29569;BME280;16501;51.462;14.346;2023-09-07T05:20:08;100980.31;;;16.33;100.00
29569;BME280;16501;51.462;14.346;2023-09-07T05:22:34;100965.91;;;16.31;100.00
29569;BME280;16501;51.462;14.346;2023-09-07T05:25:02;100990.94;;;16.38;100.00
29569;BME280;16501;51.462;14.346;2023-09-07T05:27:28;100989.84;;;16.30;100.00
29569;BME280;16501;51.462;14.346;2023-09-07T05:29:53;100994.34;;;16.43;100.00
29569;BME280;16501;51.462;14.346;2023-09-07T05:32:18;100994.63;;;16.45;100.00
29569;BME280;16501;51.462;14.346;2023-09-07T05:34:43;100967.09;;;16.25;100.00
29569;BME280;16501;51.462;14.346;2023-09-07T05:37:09;100994.34;;;16.43;100.00
29569;BME280;16501;51.462;14.346;2023-09-07T05:39:34;100999.72;;;16.40;100.00
29569;BME280;16501;51.462;14.346;2023-09-07T05:41:59;100995.88;;;16.44;100.00
29569;BME280;16501;51.462;14.346;2023-09-07T05:44:24;100983.75;;;16.37;100.00
29569;BME280;16501;51.462;14.346;2023-09-07T05:46:50;100992.50;;;16.39;100.00
29569;BME280;16501;51.462;14.346;2023-09-07T05:49:15;100998.16;;;16.39;100.00
29569;BME280;16501;51.462;14.346;2023-09-07T05:51:40;101007.78;;;16.48;100.00
29569;BME280;16501;51.462;14.346;2023-09-07T05:54:05;100999.94;;;16.37;100.00
29569;BME280;16501;51.462;14.346;2023-09-07T05:56:31;100984.72;;;16.34;100.00
29569;BME280;16501;51.462;14.346;2023-09-07T05:58:58;101000.63;;;16.32;100.00
29569;BME280;16501;51.462;14.346;2023-09-07T06:01:23;101003.63;;;16.43;100.00
29569;BME280;16501;51.462;14.346;2023-09-07T06:03:48;101004.03;;;16.36;100.00
29569;BME280;16501;51.462;14.346;2023-09-07T06:06:14;101012.75;;;16.53;100.00
29569;BME280;16501;51.462;14.346;2023-09-07T06:08:39;100978.63;;;16.42;100.00
29569;BME280;16501;51.462;14.346;2023-09-07T06:11:04;101009.97;;;16.58;100.00
29569;BME280;16501;51.462;14.346;2023-09-07T06:13:30;101014.47;;;16.71;100.00
29569;BME280;16501;51.462;14.346;2023-09-07T06:15:56;101001.38;;;16.73;100.00
29569;BME280;16501;51.462;14.346;2023-09-07T06:18:21;101008.88;;;16.76;100.00
29569;BME280;16501;51.462;14.346;2023-09-07T06:20:46;101014.81;;;16.99;100.00
29569;BME280;16501;51.462;14.346;2023-09-07T06:23:12;101001.94;;;16.98;100.00
29569;BME280;16501;51.462;14.346;2023-09-07T06:25:37;101021.69;;;17.19;100.00
29569;BME280;16501;51.462;14.346;2023-09-07T06:28:03;101007.41;;;17.07;100.00
29569;BME280;16501;51.462;14.346;2023-09-07T06:30:28;101012.78;;;17.31;100.00
29569;BME280;16501;51.462;14.346;2023-09-07T06:32:53;101004.59;;;17.39;100.00
29569;BME280;16501;51.462;14.346;2023-09-07T06:35:19;101024.34;;;17.60;100.00
29569;BME280;16501;51.462;14.346;2023-09-07T06:37:44;101032.69;;;17.75;100.00
29569;BME280;16501;51.462;14.346;2023-09-07T06:40:09;101029.66;;;17.78;100.00
29569;BME280;16501;51.462;14.346;2023-09-07T06:42:35;101007.13;;;17.69;100.00
29569;BME280;16501;51.462;14.346;2023-09-07T06:45:00;101028.59;;;17.81;100.00
29569;BME280;16501;51.462;14.346;2023-09-07T06:47:25;101027.91;;;17.86;100.00
29569;BME280;16501;51.462;14.346;2023-09-07T06:49:51;101038.53;;;17.97;100.00
29569;BME280;16501;51.462;14.346;2023-09-07T06:52:16;101039.13;;;18.07;100.00
29569;BME280;16501;51.462;14.346;2023-09-07T06:54:41;101039.22;;;18.24;100.00
29569;BME280;16501;51.462;14.346;2023-09-07T06:57:07;101044.69;;;18.39;100.00
29569;BME280;16501;51.462;14.346;2023-09-07T06:59:35;101051.97;;;18.51;100.00
29569;BME280;16501;51.462;14.346;2023-09-07T07:02:01;101050.72;;;18.63;100.00
29569;BME280;16501;51.462;14.346;2023-09-07T07:04:26;101041.94;;;18.61;100.00
29569;BME280;16501;51.462;14.346;2023-09-07T07:06:51;101051.81;;;18.77;100.00
29569;BME280;16501;51.462;14.346;2023-09-07T07:09:16;101052.91;;;18.86;99.94
29569;BME280;16501;51.462;14.346;2023-09-07T07:11:42;101049.81;;;18.89;98.92
29569;BME280;16501;51.462;14.346;2023-09-07T07:14:08;101042.84;;;18.96;99.34
29569;BME280;16501;51.462;14.346;2023-09-07T07:16:34;101058.13;;;19.15;98.98
29569;BME280;16501;51.462;14.346;2023-09-07T07:18:59;101051.44;;;19.24;98.67
29569;BME280;16501;51.462;14.346;2023-09-07T07:21:24;101059.19;;;19.35;96.00
29569;BME280;16501;51.462;14.346;2023-09-07T07:23:50;101047.03;;;19.40;97.09
29569;BME280;16501;51.462;14.346;2023-09-07T07:26:15;101057.13;;;19.64;96.06
29569;BME280;16501;51.462;14.346;2023-09-07T07:28:40;101048.59;;;19.69;94.68
29569;BME280;16501;51.462;14.346;2023-09-07T07:31:09;101067.50;;;19.89;95.89
29569;BME280;16501;51.462;14.346;2023-09-07T07:33:35;101057.09;;;19.97;95.75
29569;BME280;16501;51.462;14.346;2023-09-07T07:36:00;101057.13;;;20.03;95.59
29569;BME280;16501;51.462;14.346;2023-09-07T07:38:26;101067.94;;;20.16;94.88
29569;BME280;16501;51.462;14.346;2023-09-07T07:40:51;101065.84;;;20.28;96.25
29569;BME280;16501;51.462;14.346;2023-09-07T07:43:18;101069.16;;;20.38;91.46
29569;BME280;16501;51.462;14.346;2023-09-07T07:45:43;101074.31;;;20.50;87.38
29569;BME280;16501;51.462;14.346;2023-09-07T07:48:08;101044.28;;;20.49;88.94
29569;BME280;16501;51.462;14.346;2023-09-07T07:50:40;101074.47;;;20.81;90.72
29569;BME280;16501;51.462;14.346;2023-09-07T07:53:06;101069.47;;;20.93;89.14
29569;BME280;16501;51.462;14.346;2023-09-07T07:55:37;101065.25;;;21.05;88.53
29569;BME280;16501;51.462;14.346;2023-09-07T07:58:06;101061.06;;;21.12;87.20
29569;BME280;16501;51.462;14.346;2023-09-07T08:00:33;101066.16;;;21.24;88.05
29569;BME280;16501;51.462;14.346;2023-09-07T08:02:59;101060.19;;;21.28;77.46
29569;BME280;16501;51.462;14.346;2023-09-07T08:05:24;101063.53;;;21.32;76.26
29569;BME280;16501;51.462;14.346;2023-09-07T08:07:49;101051.03;;;21.41;82.10
29569;BME280;16501;51.462;14.346;2023-09-07T08:10:18;101044.25;;;21.44;76.75
29569;BME280;16501;51.462;14.346;2023-09-07T08:12:43;101041.81;;;21.59;75.33
29569;BME280;16501;51.462;14.346;2023-09-07T08:15:09;101047.41;;;21.71;75.97
29569;BME280;16501;51.462;14.346;2023-09-07T08:17:34;101041.94;;;21.73;76.88
29569;BME280;16501;51.462;14.346;2023-09-07T08:20:00;101059.69;;;21.90;77.20
29569;BME280;16501;51.462;14.346;2023-09-07T08:22:25;101063.50;;;21.98;75.23
29569;BME280;16501;51.462;14.346;2023-09-07T08:24:52;101044.81;;;21.97;72.53
29569;BME280;16501;51.462;14.346;2023-09-07T08:27:19;101041.47;;;22.18;75.36
29569;BME280;16501;51.462;14.346;2023-09-07T08:29:44;101050.06;;;22.43;73.53
29569;BME280;16501;51.462;14.346;2023-09-07T08:32:13;101037.56;;;22.46;72.97
29569;BME280;16501;51.462;14.346;2023-09-07T08:34:39;101035.38;;;22.52;71.29
29569;BME280;16501;51.462;14.346;2023-09-07T08:37:07;101040.56;;;22.72;71.74
29569;BME280;16501;51.462;14.346;2023-09-07T08:39:34;101034.41;;;22.68;70.15
29569;BME280;16501;51.462;14.346;2023-09-07T08:42:00;101051.78;;;22.89;69.79
29569;BME280;16501;51.462;14.346;2023-09-07T08:44:26;101038.94;;;22.96;69.92
29569;BME280;16501;51.462;14.346;2023-09-07T08:46:52;101040.34;;;23.08;66.94
29569;BME280;16501;51.462;14.346;2023-09-07T08:49:18;101043.88;;;23.14;66.83
29569;BME280;16501;51.462;14.346;2023-09-07T08:51:44;101034.31;;;23.12;63.21
29569;BME280;16501;51.462;14.346;2023-09-07T08:54:10;101051.13;;;23.34;63.17
29569;BME280;16501;51.462;14.346;2023-09-07T08:56:37;101034.94;;;23.37;67.03
29569;BME280;16501;51.462;14.346;2023-09-07T08:59:02;101034.13;;;23.56;62.62
29569;BME280;16501;51.462;14.346;2023-09-07T09:01:28;101040.75;;;23.64;64.11
29569;BME280;16501;51.462;14.346;2023-09-07T09:03:56;101030.28;;;23.66;61.98
29569;BME280;16501;51.462;14.346;2023-09-07T09:06:22;101048.59;;;23.77;61.49
29569;BME280;16501;51.462;14.346;2023-09-07T09:08:49;101042.03;;;23.82;61.08
29569;BME280;16501;51.462;14.346;2023-09-07T09:11:17;101037.31;;;23.84;63.18
29569;BME280;16501;51.462;14.346;2023-09-07T09:13:43;101057.56;;;24.00;61.36
29569;BME280;16501;51.462;14.346;2023-09-07T09:16:12;101048.00;;;24.11;62.00
29569;BME280;16501;51.462;14.346;2023-09-07T09:18:56;101045.25;;;24.18;61.62
29569;BME280;16501;51.462;14.346;2023-09-07T09:21:23;101054.19;;;24.28;60.57
29569;BME280;16501;51.462;14.346;2023-09-07T09:23:50;101058.78;;;24.44;60.47
29569;BME280;16501;51.462;14.346;2023-09-07T09:26:18;101036.53;;;24.51;61.77
29569;BME280;16501;51.462;14.346;2023-09-07T09:28:44;101040.59;;;24.55;58.28
29569;BME280;16501;51.462;14.346;2023-09-07T09:31:13;101054.19;;;24.55;62.18
29569;BME280;16501;51.462;14.346;2023-09-07T09:33:40;101043.78;;;24.52;60.74
29569;BME280;16501;51.462;14.346;2023-09-07T09:36:06;101041.63;;;24.58;60.71
29569;BME280;16501;51.462;14.346;2023-09-07T09:38:32;101037.50;;;24.67;60.25
29569;BME280;16501;51.462;14.346;2023-09-07T09:40:59;101047.06;;;24.82;61.77
29569;BME280;16501;51.462;14.346;2023-09-07T09:43:28;101048.03;;;24.85;59.91
29569;BME280;16501;51.462;14.346;2023-09-07T09:45:53;101047.34;;;24.92;59.97
29569;BME280;16501;51.462;14.346;2023-09-07T09:48:19;101038.63;;;24.98;60.79
29569;BME280;16501;51.462;14.346;2023-09-07T09:50:49;101042.44;;;25.14;58.80
29569;BME280;16501;51.462;14.346;2023-09-07T09:53:16;101030.75;;;25.12;57.98
29569;BME280;16501;51.462;14.346;2023-09-07T09:55:45;101031.38;;;25.18;56.43
29569;BME280;16501;51.462;14.346;2023-09-07T09:58:12;101027.28;;;25.27;62.76
29569;BME280;16501;51.462;14.346;2023-09-07T10:00:37;100995.31;;;25.09;58.11
29569;BME280;16501;51.462;14.346;2023-09-07T10:03:09;101038.91;;;25.42;54.94
29569;BME280;16501;51.462;14.346;2023-09-07T10:05:38;101038.75;;;25.48;55.76
29569;BME280;16501;51.462;14.346;2023-09-07T10:08:09;101020.91;;;25.42;58.28
29569;BME280;16501;51.462;14.346;2023-09-07T10:10:36;101030.47;;;25.65;55.17
29569;BME280;16501;51.462;14.346;2023-09-07T10:13:02;101030.91;;;25.69;54.60
29569;BME280;16501;51.462;14.346;2023-09-07T10:15:28;101026.69;;;25.70;55.07
29569;BME280;16501;51.462;14.346;2023-09-07T10:18:04;101032.44;;;25.70;55.37
29569;BME280;16501;51.462;14.346;2023-09-07T10:20:45;101012.88;;;25.69;54.35
29569;BME280;16501;51.462;14.346;2023-09-07T10:23:11;101013.78;;;25.85;54.06
29569;BME280;16501;51.462;14.346;2023-09-07T10:25:39;101015.31;;;25.86;53.81
29569;BME280;16501;51.462;14.346;2023-09-07T10:28:04;101017.38;;;25.99;53.78
29569;BME280;16501;51.462;14.346;2023-09-07T10:30:30;101013.19;;;26.07;52.31
29569;BME280;16501;51.462;14.346;2023-09-07T10:32:57;101013.78;;;26.13;49.39
29569;BME280;16501;51.462;14.346;2023-09-07T10:35:23;101012.41;;;26.07;46.38
29569;BME280;16501;51.462;14.346;2023-09-07T10:37:50;101012.03;;;26.10;47.67
29569;BME280;16501;51.462;14.346;2023-09-07T10:40:22;101010.00;;;26.19;46.75
29569;BME280;16501;51.462;14.346;2023-09-07T10:42:47;101001.75;;;26.15;47.46
29569;BME280;16501;51.462;14.346;2023-09-07T10:45:15;101010.94;;;26.21;46.25
29569;BME280;16501;51.462;14.346;2023-09-07T10:47:43;101010.81;;;26.27;48.52
29569;BME280;16501;51.462;14.346;2023-09-07T10:50:13;101015.63;;;26.32;46.67
29569;BME280;16501;51.462;14.346;2023-09-07T10:52:41;100999.13;;;26.25;45.47
29569;BME280;16501;51.462;14.346;2023-09-07T10:55:08;101017.19;;;26.41;44.53
29569;BME280;16501;51.462;14.346;2023-09-07T10:57:44;100979.31;;;26.13;44.28
29569;BME280;16501;51.462;14.346;2023-09-07T11:00:10;101008.59;;;26.48;45.22
29569;BME280;16501;51.462;14.346;2023-09-07T11:02:42;100999.59;;;26.52;43.93
29569;BME280;16501;51.462;14.346;2023-09-07T11:05:08;101002.94;;;26.64;43.07
29569;BME280;16501;51.462;14.346;2023-09-07T11:07:36;100999.44;;;26.58;41.51
29569;BME280;16501;51.462;14.346;2023-09-07T11:10:05;101004.81;;;26.61;42.81
29569;BME280;16501;51.462;14.346;2023-09-07T11:12:36;100982.06;;;26.71;44.50
29569;BME280;16501;51.462;14.346;2023-09-07T11:15:02;100993.59;;;26.79;43.34
29569;BME280;16501;51.462;14.346;2023-09-07T11:17:28;100996.28;;;26.84;43.17
29569;BME280;16501;51.462;14.346;2023-09-07T11:19:54;100972.47;;;26.76;43.11
29569;BME280;16501;51.462;14.346;2023-09-07T11:22:19;100995.38;;;27.05;44.20
29569;BME280;16501;51.462;14.346;2023-09-07T11:24:45;100975.03;;;26.95;43.28
29569;BME280;16501;51.462;14.346;2023-09-07T11:27:10;100967.16;;;27.11;45.96
29569;BME280;16501;51.462;14.346;2023-09-07T11:29:36;100986.75;;;27.20;43.52
29569;BME280;16501;51.462;14.346;2023-09-07T11:32:11;100990.41;;;27.21;42.10
29569;BME280;16501;51.462;14.346;2023-09-07T11:34:49;100988.28;;;27.14;42.06
29569;BME280;16501;51.462;14.346;2023-09-07T11:37:15;100971.41;;;27.18;43.42
29569;BME280;16501;51.462;14.346;2023-09-07T11:39:40;100983.53;;;27.32;41.94
29569;BME280;16501;51.462;14.346;2023-09-07T11:42:06;100974.88;;;27.55;42.85
29569;BME280;16501;51.462;14.346;2023-09-07T11:44:31;100978.16;;;27.59;42.52
29569;BME280;16501;51.462;14.346;2023-09-07T11:46:56;100983.28;;;27.76;42.93
29569;BME280;16501;51.462;14.346;2023-09-07T11:49:21;100987.31;;;27.73;42.07
29569;BME280;16501;51.462;14.346;2023-09-07T11:51:47;100989.06;;;27.76;41.70
29569;BME280;16501;51.462;14.346;2023-09-07T11:54:12;100974.50;;;27.66;41.25
29569;BME280;16501;51.462;14.346;2023-09-07T11:56:37;100977.94;;;27.80;44.35
29569;BME280;16501;51.462;14.346;2023-09-07T11:59:08;100986.34;;;27.86;43.58
29569;BME280;16501;51.462;14.346;2023-09-07T12:01:33;100988.66;;;27.95;42.92
29569;BME280;16501;51.462;14.346;2023-09-07T12:03:59;100976.34;;;28.02;43.35
29569;BME280;16501;51.462;14.346;2023-09-07T12:06:24;100975.78;;;28.03;41.14
29569;BME280;16501;51.462;14.346;2023-09-07T12:09:02;100988.41;;;28.16;40.59
29569;BME280;16501;51.462;14.346;2023-09-07T12:11:28;100986.69;;;28.13;39.70
29569;BME280;16501;51.462;14.346;2023-09-07T12:13:54;100975.53;;;28.17;39.53
29569;BME280;16501;51.462;14.346;2023-09-07T12:16:19;100979.53;;;28.29;39.83
29569;BME280;16501;51.462;14.346;2023-09-07T12:18:44;100988.53;;;28.41;40.87
29569;BME280;16501;51.462;14.346;2023-09-07T12:21:09;100982.38;;;28.37;39.18
29569;BME280;16501;51.462;14.346;2023-09-07T12:23:35;100946.91;;;28.19;39.67
29569;BME280;16501;51.462;14.346;2023-09-07T12:26:01;100976.19;;;28.40;40.76
29569;BME280;16501;51.462;14.346;2023-09-07T12:28:26;100971.63;;;28.37;39.21
29569;BME280;16501;51.462;14.346;2023-09-07T12:30:51;100971.56;;;28.45;39.10